Time;durP1;ratioP1;P1;durP2;ratioP2;P2;SDS_P1;SDS_P2;PMS_P1;PMS_P2;Temp;Humidity;BMP_temperature;BMP_pressure;BME280_temperature;BME280_humidity;BME280_pressure;Samples;Min_cycle;Max_cycle;Signal;HPM_P1;HPM_P2
2023/07/26 00:01:31;;;;;;;1.90;1.00;;;13.30;99.90;;;;;;5009012;28;20053;-80
2023/07/26 00:03:58;;;;;;;2.78;1.42;;;13.30;99.90;;;;;;5020288;28;20151;-80
2023/07/26 00:06:25;;;;;;;1.45;1.13;;;13.20;99.90;;;;;;5009355;28;20480;-80
2023/07/26 00:08:51;;;;;;;2.13;1.08;;;13.20;99.90;;;;;;5005073;28;20038;-80
2023/07/26 00:11:16;;;;;;;2.22;1.27;;;13.10;99.90;;;;;;4988525;28;20461;-80
2023/07/26 00:13:42;;;;;;;2.60;1.15;;;13.10;99.90;;;;;;4989465;28;20030;-81
2023/07/26 00:16:08;;;;;;;4.05;1.33;;;13.20;99.90;;;;;;5006623;28;20033;-79
2023/07/26 00:18:33;;;;;;;2.08;1.23;;;13.10;99.90;;;;;;5020566;28;20030;-80
2023/07/26 00:20:59;;;;;;;2.30;1.42;;;13.00;99.90;;;;;;5004519;28;20022;-81
2023/07/26 00:23:25;;;;;;;2.90;1.00;;;13.00;99.90;;;;;;5020310;28;20096;-80
2023/07/26 00:25:51;;;;;;;3.05;1.60;;;12.80;99.90;;;;;;5004779;28;20034;-81
2023/07/26 00:28:16;;;;;;;2.05;1.33;;;13.00;99.90;;;;;;4988848;28;20469;-80
2023/07/26 00:30:42;;;;;;;4.03;1.50;;;13.00;99.90;;;;;;4987942;28;20389;-80
2023/07/26 00:33:07;;;;;;;4.60;1.58;;;13.10;99.90;;;;;;5004902;28;20038;-79
2023/07/26 00:35:39;;;;;;;2.40;1.67;;;12.80;99.90;;;;;;5018457;28;20156;-80
2023/07/26 00:38:05;;;;;;;4.97;1.60;;;13.00;99.90;;;;;;5002566;28;20117;-81
2023/07/26 00:40:30;;;;;;;2.97;1.42;;;13.10;99.90;;;;;;5009867;28;20037;-80
2023/07/26 00:42:56;;;;;;;4.22;1.55;;;13.00;99.90;;;;;;5004099;28;20049;-80
2023/07/26 00:45:21;;;;;;;2.53;1.05;;;13.00;99.90;;;;;;5018458;28;20198;-81
2023/07/26 00:47:47;;;;;;;2.30;1.42;;;12.90;99.90;;;;;;5019967;28;20040;-81
2023/07/26 00:50:13;;;;;;;1.60;1.30;;;12.90;99.90;;;;;;4987344;28;20036;-80
2023/07/26 00:52:38;;;;;;;2.35;1.35;;;12.90;99.90;;;;;;4987467;28;20096;-79
2023/07/26 00:55:04;;;;;;;3.92;1.40;;;12.90;99.90;;;;;;5002941;28;20034;-81
2023/07/26 00:57:30;;;;;;;3.00;1.10;;;12.90;99.90;;;;;;5004316;28;20116;-80
2023/07/26 00:59:57;;;;;;;2.47;1.33;;;12.90;99.90;;;;;;5007019;28;21005;-80
2023/07/26 01:02:22;;;;;;;1.65;1.55;;;12.90;99.90;;;;;;4991533;28;20516;-80
2023/07/26 01:04:48;;;;;;;1.98;1.20;;;12.90;99.90;;;;;;5003494;28;20026;-80
2023/07/26 01:07:36;;;;;;;3.08;1.40;;;12.80;99.90;;;;;;5003775;28;20501;-79
2023/07/26 01:10:09;;;;;;;1.50;1.02;;;12.90;99.90;;;;;;4975054;28;20068;-81
2023/07/26 01:12:42;;;;;;;3.25;1.63;;;12.90;99.90;;;;;;5002496;28;20648;-80
2023/07/26 01:15:08;;;;;;;3.05;1.65;;;12.90;99.90;;;;;;5018662;28;20034;-81
2023/07/26 01:17:33;;;;;;;6.03;1.98;;;12.80;99.90;;;;;;5006000;28;20030;-80
2023/07/26 01:19:59;;;;;;;3.22;1.30;;;12.90;99.90;;;;;;5004755;28;20057;-80
2023/07/26 01:22:24;;;;;;;5.03;1.50;;;12.90;99.90;;;;;;4992146;28;20502;-81
2023/07/26 01:24:53;;;;;;;5.03;1.50;;;12.90;99.90;;;;;;5004053;28;20497;-80
2023/07/26 01:27:18;;;;;;;2.40;1.20;;;12.90;99.90;;;;;;4987981;28;20034;-80
2023/07/26 01:29:44;;;;;;;3.38;2.03;;;12.80;99.90;;;;;;5019161;28;20857;-80
2023/07/26 01:32:10;;;;;;;1.75;1.40;;;12.80;99.90;;;;;;5007647;28;20104;-80
2023/07/26 01:34:36;;;;;;;2.10;1.75;;;12.80;99.90;;;;;;5007439;28;20646;-80
2023/07/26 01:37:02;;;;;;;2.20;1.25;;;12.70;99.90;;;;;;5008661;28;20088;-80
2023/07/26 01:39:28;;;;;;;4.18;2.03;;;12.80;99.90;;;;;;5009520;28;20033;-80
2023/07/26 01:41:53;;;;;;;3.13;1.35;;;12.80;99.90;;;;;;5007495;28;20527;-80
2023/07/26 01:44:19;;;;;;;2.67;1.75;;;12.80;99.90;;;;;;5022607;28;20057;-80
2023/07/26 01:46:44;;;;;;;2.63;1.48;;;12.70;99.90;;;;;;5022212;28;20030;-80
2023/07/26 01:49:10;;;;;;;4.35;1.80;;;12.60;99.90;;;;;;5007641;28;20460;-79
2023/07/26 01:51:35;;;;;;;3.38;2.13;;;12.60;99.90;;;;;;5008764;28;20383;-80
2023/07/26 01:54:01;;;;;;;4.68;1.83;;;12.60;99.90;;;;;;4990847;28;20034;-80
2023/07/26 01:56:26;;;;;;;2.38;1.88;;;12.60;99.90;;;;;;5006239;28;20033;-80
2023/07/26 01:58:52;;;;;;;3.30;1.58;;;12.60;99.90;;;;;;4992292;28;20379;-80
2023/07/26 02:01:19;;;;;;;5.47;2.03;;;12.70;99.90;;;;;;4990233;28;20074;-80
2023/07/26 02:03:44;;;;;;;4.03;2.00;;;12.60;99.90;;;;;;5000871;28;20045;-80
2023/07/26 02:06:10;;;;;;;4.03;1.70;;;12.70;99.90;;;;;;4988840;28;20033;-80
2023/07/26 02:08:35;;;;;;;5.18;2.30;;;12.60;99.90;;;;;;5022561;28;20045;-80
2023/07/26 02:11:01;;;;;;;6.15;2.33;;;12.70;99.90;;;;;;5022211;28;20034;-80
2023/07/26 02:13:26;;;;;;;8.18;2.40;;;12.60;99.90;;;;;;5022665;28;20034;-80
2023/07/26 02:15:52;;;;;;;4.43;2.15;;;12.60;99.90;;;;;;5003760;28;20065;-80
2023/07/26 02:18:18;;;;;;;5.75;2.00;;;12.60;99.90;;;;;;5022367;28;20037;-80
2023/07/26 02:20:43;;;;;;;5.68;2.25;;;12.50;99.90;;;;;;4989990;28;20029;-80
2023/07/26 02:23:09;;;;;;;2.35;1.42;;;12.50;99.90;;;;;;5007576;28;20033;-80
2023/07/26 02:25:34;;;;;;;5.88;2.22;;;12.50;99.90;;;;;;5004991;28;20121;-80
2023/07/26 02:28:00;;;;;;;4.85;2.05;;;12.70;99.90;;;;;;5006045;28;20112;-80
2023/07/26 02:30:25;;;;;;;4.47;2.33;;;12.70;99.90;;;;;;4990998;28;20125;-79
2023/07/26 02:32:51;;;;;;;5.35;2.63;;;12.80;99.90;;;;;;5008560;28;20026;-80
2023/07/26 02:35:17;;;;;;;2.50;1.67;;;12.80;99.90;;;;;;5022470;28;20026;-80
2023/07/26 02:37:42;;;;;;;5.35;2.33;;;12.90;99.90;;;;;;5007710;28;20034;-80
2023/07/26 02:40:10;;;;;;;2.90;1.98;;;13.00;99.90;;;;;;5007217;28;20056;-80
2023/07/26 02:42:36;;;;;;;2.92;1.42;;;13.00;99.90;;;;;;4989736;28;20041;-79
2023/07/26 02:45:01;;;;;;;1.40;1.30;;;13.20;99.90;;;;;;4997252;28;20030;-79
2023/07/26 02:47:31;;;;;;;11.02;2.92;;;13.10;99.90;;;;;;5021333;28;20042;-80
2023/07/26 02:49:56;;;;;;;3.45;2.67;;;12.90;99.90;;;;;;5003689;28;20034;-80
2023/07/26 02:52:22;;;;;;;6.60;4.00;;;12.40;99.90;;;;;;4989373;28;20119;-80
2023/07/26 02:54:47;;;;;;;5.18;2.83;;;12.30;99.90;;;;;;5006246;28;20136;-76
2023/07/26 02:57:13;;;;;;;3.75;2.38;;;12.60;99.90;;;;;;5001413;28;20061;-76
2023/07/26 02:59:40;;;;;;;1.80;1.63;;;12.70;99.90;;;;;;4998292;28;20719;-76
2023/07/26 03:02:06;;;;;;;7.40;2.95;;;12.80;99.90;;;;;;4996604;28;20064;-77
2023/07/26 03:04:32;;;;;;;3.17;2.30;;;13.00;99.90;;;;;;4987962;28;20109;-76
2023/07/26 03:06:57;;;;;;;8.75;2.90;;;13.10;99.90;;;;;;4999017;28;20549;-76
2023/07/26 03:09:23;;;;;;;4.30;2.20;;;13.10;99.90;;;;;;4989578;28;20112;-76
2023/07/26 03:11:48;;;;;;;4.15;3.58;;;13.20;99.90;;;;;;4971308;28;20030;-76
2023/07/26 03:14:14;;;;;;;8.95;4.55;;;13.00;99.90;;;;;;5001710;28;20500;-76
2023/07/26 03:16:39;;;;;;;5.75;3.90;;;12.80;99.90;;;;;;5005157;28;20431;-76
2023/07/26 03:19:05;;;;;;;9.05;5.13;;;12.80;99.90;;;;;;4993592;28;20044;-77
2023/07/26 03:21:31;;;;;;;9.15;4.55;;;12.70;99.90;;;;;;5006856;28;20472;-76
2023/07/26 03:23:56;;;;;;;6.85;4.82;;;12.80;99.90;;;;;;5005904;28;20227;-76
2023/07/26 03:26:22;;;;;;;3.10;1.65;;;12.80;99.90;;;;;;5020871;28;20527;-76
2023/07/26 03:28:47;;;;;;;2.83;2.58;;;12.80;99.90;;;;;;4989194;28;20095;-76
2023/07/26 03:31:13;;;;;;;6.30;3.90;;;12.90;99.90;;;;;;5021042;28;20104;-76
2023/07/26 03:33:39;;;;;;;4.75;3.08;;;12.90;99.90;;;;;;4989039;28;20128;-76
2023/07/26 03:36:04;;;;;;;2.72;2.10;;;12.90;99.90;;;;;;5011464;28;20029;-76
2023/07/26 03:38:30;;;;;;;2.03;1.63;;;12.90;99.90;;;;;;5006115;28;20062;-77
2023/07/26 03:40:56;;;;;;;5.90;3.50;;;13.00;99.90;;;;;;5003425;28;20034;-76
2023/07/26 03:43:21;;;;;;;4.35;3.45;;;13.10;99.90;;;;;;5007393;28;20053;-76
2023/07/26 03:45:49;;;;;;;7.25;3.55;;;12.60;99.90;;;;;;4988413;28;20050;-78
2023/07/26 03:48:15;;;;;;;3.53;2.15;;;12.50;99.90;;;;;;4988063;28;20499;-76
2023/07/26 03:50:41;;;;;;;2.97;2.20;;;12.40;99.90;;;;;;4990549;28;20029;-76
2023/07/26 03:53:06;;;;;;;7.03;2.75;;;12.50;99.90;;;;;;4988026;28;20061;-76
2023/07/26 03:55:32;;;;;;;3.92;2.85;;;12.70;99.90;;;;;;4988759;28;20030;-76
2023/07/26 03:57:57;;;;;;;3.65;2.75;;;12.80;99.90;;;;;;5020087;28;20038;-76
2023/07/26 04:00:23;;;;;;;7.90;3.78;;;12.70;99.90;;;;;;5005144;28;20033;-76
2023/07/26 04:02:48;;;;;;;3.60;3.20;;;12.40;99.90;;;;;;5008746;28;20029;-79
2023/07/26 04:05:14;;;;;;;6.32;3.90;;;12.50;99.90;;;;;;5005799;28;20095;-79
2023/07/26 04:07:40;;;;;;;4.35;3.92;;;12.60;99.90;;;;;;5007480;28;20072;-81
2023/07/26 04:10:06;;;;;;;12.05;4.82;;;12.50;99.90;;;;;;5008983;28;20033;-81
2023/07/26 04:12:31;;;;;;;9.05;5.10;;;12.30;99.90;;;;;;4987850;28;20389;-80
2023/07/26 04:14:57;;;;;;;6.68;4.65;;;12.30;99.90;;;;;;4984582;28;20034;-81
2023/07/26 04:17:23;;;;;;;6.90;4.57;;;12.20;99.90;;;;;;4985824;28;20042;-81
2023/07/26 04:19:48;;;;;;;4.43;2.75;;;12.10;99.90;;;;;;4996324;28;20030;-81
2023/07/26 04:22:14;;;;;;;4.53;2.33;;;12.30;99.90;;;;;;5000121;28;20161;-80
2023/07/26 04:24:43;;;;;;;4.70;3.75;;;12.70;99.90;;;;;;5017175;28;20338;-80
2023/07/26 04:27:09;;;;;;;3.40;2.35;;;12.70;99.90;;;;;;5004316;28;20064;-80
2023/07/26 04:29:34;;;;;;;4.97;3.15;;;12.70;99.90;;;;;;4988660;28;20068;-81
2023/07/26 04:32:00;;;;;;;3.95;2.60;;;12.70;99.90;;;;;;5019479;28;20135;-79
2023/07/26 04:34:25;;;;;;;3.28;1.80;;;12.70;99.90;;;;;;5019887;28;20040;-79
2023/07/26 04:36:51;;;;;;;2.13;1.92;;;12.70;99.90;;;;;;4988274;28;20061;-79
2023/07/26 04:39:17;;;;;;;2.22;1.90;;;12.90;99.90;;;;;;5001989;28;20545;-80
2023/07/26 04:41:42;;;;;;;2.38;1.77;;;12.90;99.90;;;;;;4988611;28;20038;-79
2023/07/26 04:44:08;;;;;;;2.47;1.90;;;12.90;99.90;;;;;;4994411;28;20045;-80
2023/07/26 04:46:33;;;;;;;4.10;2.45;;;12.90;99.90;;;;;;4987207;28;20033;-80
2023/07/26 04:48:59;;;;;;;4.53;1.50;;;13.00;99.90;;;;;;4979567;28;20278;-80
2023/07/26 04:51:24;;;;;;;3.08;1.60;;;13.00;99.90;;;;;;4977605;28;20066;-79
2023/07/26 04:53:50;;;;;;;3.10;1.98;;;13.10;99.90;;;;;;4975107;28;20052;-80
2023/07/26 04:56:16;;;;;;;1.70;1.27;;;13.00;99.90;;;;;;4989406;28;20042;-79
2023/07/26 04:58:42;;;;;;;1.65;1.25;;;13.00;99.90;;;;;;5006015;28;20478;-79
2023/07/26 05:01:07;;;;;;;1.83;1.23;;;13.00;99.90;;;;;;4987549;28;20037;-80
2023/07/26 05:03:34;;;;;;;2.13;1.00;;;13.00;99.90;;;;;;5019962;28;20029;-80
2023/07/26 05:05:59;;;;;;;3.45;1.15;;;13.00;99.90;;;;;;5018373;28;20041;-79
2023/07/26 05:08:25;;;;;;;2.33;1.55;;;13.00;99.90;;;;;;5006412;28;20385;-79
2023/07/26 05:10:51;;;;;;;1.63;1.50;;;13.10;99.90;;;;;;5006828;28;20100;-79
2023/07/26 05:13:17;;;;;;;2.80;1.20;;;13.10;99.90;;;;;;4992351;28;20030;-78
2023/07/26 05:15:43;;;;;;;2.00;1.15;;;13.10;99.90;;;;;;5007490;28;20444;-78
2023/07/26 05:18:08;;;;;;;2.50;1.02;;;13.20;99.90;;;;;;4992525;28;20037;-80
2023/07/26 05:20:34;;;;;;;1.20;1.10;;;13.20;99.90;;;;;;5011399;28;20038;-80
2023/07/26 05:22:59;;;;;;;1.40;1.00;;;13.10;99.90;;;;;;5023179;28;20417;-80
2023/07/26 05:25:25;;;;;;;1.80;1.30;;;13.20;99.90;;;;;;5007920;28;20045;-80
2023/07/26 05:27:51;;;;;;;2.17;1.38;;;13.30;99.90;;;;;;4991472;28;20084;-77
2023/07/26 05:30:19;;;;;;;1.27;1.17;;;13.30;99.90;;;;;;5023340;28;20485;-77
2023/07/26 05:32:45;;;;;;;3.97;1.23;;;13.30;99.90;;;;;;5022688;28;20444;-77
2023/07/26 05:35:12;;;;;;;2.15;0.95;;;13.40;99.90;;;;;;5008524;28;20034;-77
2023/07/26 05:37:38;;;;;;;1.48;1.23;;;13.40;99.90;;;;;;4983754;28;20154;-77
2023/07/26 05:40:05;;;;;;;3.05;1.42;;;13.50;99.90;;;;;;5005619;28;20122;-77
2023/07/26 05:42:31;;;;;;;1.80;1.55;;;13.50;99.90;;;;;;5010822;28;20361;-77
2023/07/26 05:44:57;;;;;;;2.03;1.60;;;13.60;99.90;;;;;;4996862;28;20509;-77
2023/07/26 05:47:22;;;;;;;1.05;0.85;;;13.70;99.90;;;;;;5005795;28;20049;-76
2023/07/26 05:49:48;;;;;;;2.55;1.15;;;13.70;99.90;;;;;;4989544;28;20511;-76
2023/07/26 05:52:13;;;;;;;2.03;1.40;;;13.80;99.90;;;;;;5005390;28;20045;-77
2023/07/26 05:54:39;;;;;;;2.50;1.65;;;13.80;99.90;;;;;;5022666;28;20404;-77
2023/07/26 05:57:05;;;;;;;4.93;1.50;;;14.00;99.90;;;;;;5012058;28;20510;-76
2023/07/26 05:59:30;;;;;;;4.35;1.63;;;14.10;99.90;;;;;;5022059;28;20034;-76
2023/07/26 06:01:58;;;;;;;3.58;1.75;;;14.20;99.90;;;;;;4993185;28;20030;-76
2023/07/26 06:04:24;;;;;;;2.95;1.30;;;14.30;99.90;;;;;;5020661;28;20042;-77
2023/07/26 06:06:49;;;;;;;4.10;2.05;;;14.50;99.90;;;;;;4996122;28;20045;-76
2023/07/26 06:09:15;;;;;;;2.55;1.67;;;14.80;99.90;;;;;;4992248;28;20044;-76
2023/07/26 06:11:42;;;;;;;2.30;1.40;;;14.90;99.90;;;;;;4990492;28;20030;-76
2023/07/26 06:14:08;;;;;;;2.47;2.13;;;15.10;99.90;;;;;;5004864;28;20030;-76
2023/07/26 06:16:33;;;;;;;3.35;1.85;;;15.10;99.90;;;;;;5022006;28;20107;-76
2023/07/26 06:18:59;;;;;;;2.70;1.60;;;15.20;99.90;;;;;;5005816;28;20057;-77
2023/07/26 06:21:24;;;;;;;3.50;1.85;;;15.20;99.90;;;;;;4990238;28;20026;-76
2023/07/26 06:23:50;;;;;;;4.40;2.35;;;15.20;99.90;;;;;;5022070;28;20034;-77
2023/07/26 06:26:16;;;;;;;4.70;2.55;;;15.30;99.90;;;;;;5021513;28;20122;-76
2023/07/26 06:28:42;;;;;;;4.35;2.08;;;15.40;99.90;;;;;;4989833;28;20505;-78
2023/07/26 06:31:08;;;;;;;2.75;2.03;;;15.40;99.90;;;;;;5006795;28;20029;-77
2023/07/26 06:33:33;;;;;;;2.72;1.60;;;15.50;99.90;;;;;;5005476;28;20156;-76
2023/07/26 06:35:59;;;;;;;2.95;1.80;;;15.50;99.90;;;;;;5007327;28;20030;-78
2023/07/26 06:38:25;;;;;;;2.17;1.85;;;15.50;99.90;;;;;;4991810;28;20030;-77
2023/07/26 06:40:50;;;;;;;3.65;2.83;;;15.60;99.90;;;;;;5021434;28;20052;-77
2023/07/26 06:43:16;;;;;;;2.10;1.83;;;15.80;99.90;;;;;;5022218;28;20061;-75
2023/07/26 06:45:46;;;;;;;3.80;3.15;;;16.10;99.90;;;;;;5005378;28;20033;-77
2023/07/26 06:48:12;;;;;;;4.22;3.20;;;16.30;99.90;;;;;;5003856;28;20038;-76
2023/07/26 06:50:41;;;;;;;7.95;3.25;;;16.50;99.90;;;;;;4991595;28;20515;-77
2023/07/26 06:53:06;;;;;;;4.57;3.38;;;16.70;99.90;;;;;;4990711;28;20046;-77
2023/07/26 06:55:33;;;;;;;5.40;2.70;;;16.90;99.90;;;;;;5007832;28;20030;-75
2023/07/26 06:57:58;;;;;;;7.25;2.80;;;17.30;99.90;;;;;;5020437;28;20490;-77
2023/07/26 07:00:24;;;;;;;5.63;3.10;;;17.20;99.90;;;;;;4981892;28;20069;-78
2023/07/26 07:02:55;;;;;;;5.88;2.65;;;17.20;99.90;;;;;;5001528;28;20042;-78
2023/07/26 07:05:21;;;;;;;4.85;2.80;;;17.60;99.90;;;;;;5005815;28;20053;-76
2023/07/26 07:07:46;;;;;;;3.25;1.58;;;17.90;99.90;;;;;;4965677;28;20519;-76
2023/07/26 07:10:12;;;;;;;3.15;2.85;;;17.80;99.90;;;;;;4996946;28;20035;-77
2023/07/26 07:12:37;;;;;;;6.05;3.40;;;18.10;99.90;;;;;;5003970;28;20049;-77
2023/07/26 07:15:04;;;;;;;8.15;3.63;;;18.50;99.90;;;;;;4978696;28;20508;-77
2023/07/26 07:17:36;;;;;;;3.28;2.20;;;18.70;99.90;;;;;;4992961;28;20026;-77
2023/07/26 07:20:03;;;;;;;5.55;3.53;;;18.60;99.90;;;;;;4974333;28;20041;-77
2023/07/26 07:22:38;;;;;;;8.05;4.60;;;18.80;99.90;;;;;;4984236;28;20552;-77
2023/07/26 07:25:05;;;;;;;6.28;3.60;;;19.00;99.90;;;;;;4984006;28;20030;-78
2023/07/26 07:27:30;;;;;;;8.57;3.97;;;19.30;99.90;;;;;;4990769;28;20049;-76
2023/07/26 07:29:56;;;;;;;8.38;4.65;;;19.30;99.90;;;;;;4978214;28;20038;-77
2023/07/26 07:32:22;;;;;;;6.20;4.07;;;19.00;99.90;;;;;;5001955;28;20037;-77
2023/07/26 07:34:48;;;;;;;5.95;3.40;;;18.80;99.90;;;;;;5001386;28;20050;-76
2023/07/26 07:37:13;;;;;;;6.40;3.25;;;19.00;99.90;;;;;;4971411;28;20038;-76
2023/07/26 07:39:39;;;;;;;6.90;4.53;;;19.00;99.90;;;;;;5005837;28;20037;-76
2023/07/26 07:42:05;;;;;;;6.25;4.60;;;19.40;99.90;;;;;;5020689;28;20555;-77
2023/07/26 07:44:30;;;;;;;5.13;4.13;;;19.60;99.90;;;;;;5004315;28;20030;-76
2023/07/26 07:46:56;;;;;;;3.85;2.97;;;19.80;99.90;;;;;;4981096;28;20124;-76
2023/07/26 07:49:22;;;;;;;4.78;3.90;;;19.40;99.90;;;;;;4988099;28;20079;-76
2023/07/26 07:51:47;;;;;;;7.07;4.97;;;19.30;99.90;;;;;;5005472;28;20482;-77
2023/07/26 07:54:13;;;;;;;6.95;5.85;;;19.70;99.90;;;;;;4968623;28;20553;-76
2023/07/26 07:56:39;;;;;;;5.65;4.07;;;19.80;99.90;;;;;;5000722;28;20042;-77
2023/07/26 07:59:05;;;;;;;5.75;3.97;;;20.30;99.90;;;;;;4975141;28;20115;-76
2023/07/26 08:01:33;;;;;;;3.92;2.67;;;20.50;99.90;;;;;;4985797;28;20405;-76
2023/07/26 08:03:59;;;;;;;8.85;5.63;;;20.70;99.90;;;;;;4998984;28;20108;-76
2023/07/26 08:06:25;;;;;;;7.00;4.07;;;20.90;99.90;;;;;;5016785;28;20045;-76
2023/07/26 08:08:51;;;;;;;8.85;5.65;;;21.00;99.90;;;;;;5003057;28;20041;-76
2023/07/26 08:11:16;;;;;;;7.20;5.40;;;21.10;99.90;;;;;;5003464;28;20417;-76
2023/07/26 08:13:42;;;;;;;4.20;3.75;;;21.30;99.90;;;;;;5005702;28;20048;-77
2023/07/26 08:16:08;;;;;;;7.47;4.43;;;21.30;99.50;;;;;;5002711;28;20037;-76
2023/07/26 08:18:34;;;;;;;9.18;4.57;;;21.50;99.90;;;;;;5008441;28;20120;-77
2023/07/26 08:20:59;;;;;;;4.70;4.03;;;21.60;99.60;;;;;;4986666;28;20069;-77
2023/07/26 08:23:26;;;;;;;3.92;3.47;;;21.30;99.20;;;;;;4987470;28;20129;-77
2023/07/26 08:25:51;;;;;;;6.20;5.47;;;21.80;99.70;;;;;;5002852;28;20042;-76
2023/07/26 08:28:17;;;;;;;6.82;4.40;;;22.40;99.90;;;;;;5006134;28;20494;-77
2023/07/26 08:30:43;;;;;;;6.65;5.28;;;22.00;96.20;;;;;;4987275;28;20026;-77
2023/07/26 08:33:08;;;;;;;7.60;4.32;;;22.40;97.60;;;;;;5002785;28;20626;-77
2023/07/26 08:35:34;;;;;;;6.78;4.30;;;22.90;96.80;;;;;;5019098;28;20064;-77
2023/07/26 08:37:59;;;;;;;6.20;2.85;;;23.10;97.20;;;;;;5003006;28;20030;-76
2023/07/26 08:40:25;;;;;;;8.07;6.32;;;23.40;96.80;;;;;;5003573;28;20041;-76
2023/07/26 08:42:50;;;;;;;7.57;4.15;;;23.70;97.00;;;;;;4987810;28;20056;-77
2023/07/26 08:45:17;;;;;;;5.85;4.18;;;23.80;96.80;;;;;;5007911;28;20048;-76
2023/07/26 08:47:42;;;;;;;5.70;3.58;;;24.20;97.80;;;;;;5006728;28;20041;-77
2023/07/26 08:50:08;;;;;;;12.32;4.15;;;24.40;96.40;;;;;;4986617;28;20401;-76
2023/07/26 08:52:34;;;;;;;5.72;3.38;;;24.50;95.80;;;;;;5018714;28;20107;-76
2023/07/26 08:55:00;;;;;;;5.28;3.70;;;24.90;95.10;;;;;;4987114;28;20111;-77
2023/07/26 08:57:25;;;;;;;4.53;3.53;;;24.60;93.30;;;;;;4985486;28;20573;-76
2023/07/26 08:59:51;;;;;;;4.22;2.80;;;24.50;91.70;;;;;;4986853;28;20038;-76
2023/07/26 09:02:17;;;;;;;5.72;4.65;;;24.80;95.00;;;;;;5019458;28;20343;-76
2023/07/26 09:04:44;;;;;;;6.63;4.93;;;25.20;95.10;;;;;;4986210;28;20526;-76
2023/07/26 09:07:10;;;;;;;5.40;3.85;;;25.80;93.60;;;;;;4985263;28;20044;-77
2023/07/26 09:09:35;;;;;;;6.53;3.35;;;25.10;90.10;;;;;;5004188;28;20033;-77
2023/07/26 09:12:01;;;;;;;4.82;4.13;;;24.90;92.70;;;;;;5003251;28;20041;-77
2023/07/26 09:14:31;;;;;;;4.90;4.30;;;25.70;92.40;;;;;;4986677;28;20030;-77
2023/07/26 09:17:00;;;;;;;3.25;2.95;;;25.90;91.70;;;;;;4985417;28;20393;-77
2023/07/26 09:19:28;;;;;;;4.82;4.20;;;25.80;91.20;;;;;;4998710;28;20049;-77
2023/07/26 09:21:58;;;;;;;7.45;4.22;;;25.30;90.10;;;;;;5009593;28;20374;-77
2023/07/26 09:24:29;;;;;;;6.10;4.18;;;25.10;89.70;;;;;;4986759;28;20085;-77
2023/07/26 09:27:01;;;;;;;6.28;3.75;;;25.40;90.80;;;;;;4972416;28;20038;-77
2023/07/26 09:29:27;;;;;;;9.18;4.07;;;25.20;90.70;;;;;;4974139;28;20026;-77
2023/07/26 09:31:52;;;;;;;6.60;4.18;;;25.00;90.90;;;;;;5019225;28;20053;-77
2023/07/26 09:34:18;;;;;;;5.97;2.63;;;25.00;90.10;;;;;;5005124;28;20397;-77
2023/07/26 09:36:49;;;;;;;4.03;1.55;;;24.40;88.40;;;;;;5001017;28;20038;-77
2023/07/26 09:39:16;;;;;;;15.40;2.53;;;23.60;87.10;;;;;;5018948;28;20030;-77
2023/07/26 09:41:42;;;;;;;5.78;1.58;;;23.30;91.70;;;;;;4985733;28;20037;-78
2023/07/26 09:44:19;;;;;;;3.70;2.05;;;22.80;91.60;;;;;;5002755;28;20415;-79
2023/07/26 09:46:49;;;;;;;2.40;1.83;;;22.30;93.40;;;;;;4980324;28;20084;-79
2023/07/26 09:49:17;;;;;;;2.58;1.83;;;21.70;94.10;;;;;;5004800;28;20504;-78
2023/07/26 09:51:43;;;;;;;2.63;1.88;;;21.30;94.90;;;;;;5019261;28;20030;-79
2023/07/26 09:54:09;;;;;;;2.60;1.67;;;21.00;95.40;;;;;;5003931;28;20385;-78
2023/07/26 09:56:35;;;;;;;1.92;1.67;;;20.70;96.10;;;;;;5006515;28;20524;-78
2023/07/26 09:59:01;;;;;;;5.53;2.22;;;20.40;97.00;;;;;;5003746;28;20034;-78
2023/07/26 10:01:27;;;;;;;4.65;1.67;;;20.20;97.20;;;;;;4989850;28;20030;-77
2023/07/26 10:03:53;;;;;;;2.65;1.90;;;20.10;97.40;;;;;;5010308;28;20084;-77
2023/07/26 10:06:19;;;;;;;4.45;1.45;;;19.90;98.30;;;;;;5005967;28;20034;-77
2023/07/26 10:08:46;;;;;;;2.63;1.60;;;19.70;98.10;;;;;;4983387;28;20137;-77
2023/07/26 10:11:13;;;;;;;3.08;1.80;;;19.60;99.60;;;;;;4999179;28;20027;-77
2023/07/26 10:13:39;;;;;;;3.17;1.85;;;19.60;99.60;;;;;;5008787;28;20470;-77
2023/07/26 10:16:04;;;;;;;2.88;1.67;;;19.80;99.90;;;;;;4990887;28;20087;-77
2023/07/26 10:18:30;;;;;;;2.40;1.85;;;20.00;99.90;;;;;;5007183;28;20026;-76
2023/07/26 10:21:01;;;;;;;2.65;2.10;;;20.20;99.90;;;;;;5004757;28;20358;-76
2023/07/26 10:23:26;;;;;;;1.90;1.70;;;20.70;99.90;;;;;;5007282;28;20397;-76
2023/07/26 10:25:52;;;;;;;1.95;1.75;;;20.80;99.90;;;;;;4971679;28;20033;-76
2023/07/26 10:28:19;;;;;;;2.88;2.20;;;21.10;99.90;;;;;;5005488;28;20064;-76
2023/07/26 10:30:45;;;;;;;3.85;2.03;;;21.30;99.90;;;;;;4990317;28;20107;-76
2023/07/26 10:33:12;;;;;;;5.40;2.45;;;21.50;99.90;;;;;;5006801;28;20080;-76
2023/07/26 10:35:37;;;;;;;4.38;2.45;;;21.70;99.90;;;;;;4990122;28;20034;-76
2023/07/26 10:38:06;;;;;;;6.72;2.83;;;22.00;99.90;;;;;;4999258;28;20096;-77
2023/07/26 10:40:39;;;;;;;3.28;2.35;;;22.20;99.90;;;;;;4987276;28;20481;-77
2023/07/26 10:43:19;;;;;;;2.97;2.35;;;22.50;99.90;;;;;;4993372;28;20034;-77
2023/07/26 10:45:48;;;;;;;2.33;1.70;;;22.70;99.90;;;;;;5004678;28;20129;-77
2023/07/26 10:48:27;;;;;;;3.60;2.17;;;22.80;99.90;;;;;;5007340;28;20045;-76
2023/07/26 10:50:56;;;;;;;4.43;2.22;;;23.20;99.90;;;;;;5005019;28;20120;-76
2023/07/26 10:53:38;;;;;;;2.38;2.03;;;23.60;99.90;;;;;;4973478;28;20081;-77
2023/07/26 10:56:18;;;;;;;5.38;2.88;;;23.80;99.90;;;;;;5003193;28;20190;-76
2023/07/26 10:58:58;;;;;;;4.55;3.20;;;23.80;99.90;;;;;;4992087;28;20113;-77
2023/07/26 11:01:41;;;;;;;3.05;2.40;;;24.00;99.90;;;;;;4988388;28;20108;-77
2023/07/26 11:04:11;;;;;;;3.38;2.80;;;24.20;99.90;;;;;;4969693;28;21526;-77
2023/07/26 11:06:56;;;;;;;3.40;2.70;;;24.60;97.60;;;;;;4985379;28;20034;-77
2023/07/26 11:09:31;;;;;;;4.90;2.92;;;25.40;97.20;;;;;;5003136;28;20038;-77
2023/07/26 11:11:58;;;;;;;3.42;2.78;;;25.30;97.90;;;;;;5008460;28;20037;-77
2023/07/26 11:14:27;;;;;;;3.67;2.78;;;25.80;93.50;;;;;;4977696;28;20490;-77
2023/07/26 11:16:53;;;;;;;4.07;2.50;;;25.90;94.40;;;;;;4982546;28;20045;-77
2023/07/26 11:19:19;;;;;;;3.50;2.55;;;26.40;93.20;;;;;;4989192;28;20034;-77
2023/07/26 11:21:45;;;;;;;5.18;2.97;;;26.50;92.60;;;;;;5003481;28;20501;-77
2023/07/26 11:24:10;;;;;;;2.72;2.30;;;26.80;91.30;;;;;;5005013;28;20105;-77
2023/07/26 11:26:46;;;;;;;4.57;2.90;;;26.90;94.30;;;;;;5019723;28;20037;-77
2023/07/26 11:29:13;;;;;;;6.00;2.53;;;26.90;88.10;;;;;;5008357;28;20064;-77
2023/07/26 11:31:39;;;;;;;4.50;2.88;;;27.00;89.90;;;;;;4988000;28;20543;-77
2023/07/26 11:34:17;;;;;;;4.03;2.40;;;27.00;91.00;;;;;;5004165;28;20057;-78
2023/07/26 11:36:43;;;;;;;3.47;2.60;;;27.40;91.70;;;;;;5005103;28;20030;-76
2023/07/26 11:39:22;;;;;;;3.58;2.42;;;27.40;91.70;;;;;;5020059;28;20034;-77
2023/07/26 11:41:48;;;;;;;4.03;2.75;;;28.30;85.70;;;;;;5003206;28;20038;-77
2023/07/26 11:44:14;;;;;;;3.97;2.90;;;28.30;90.50;;;;;;4993975;28;20044;-77
2023/07/26 11:46:44;;;;;;;3.33;2.55;;;28.30;86.40;;;;;;4988361;28;20531;-77
2023/07/26 11:49:22;;;;;;;4.72;2.95;;;28.50;81.00;;;;;;4989361;28;20044;-77
2023/07/26 11:51:48;;;;;;;3.65;3.10;;;28.30;89.30;;;;;;4988400;28;20041;-77
2023/07/26 11:54:14;;;;;;;3.63;2.72;;;28.10;87.30;;;;;;5003184;28;20104;-77
2023/07/26 11:56:41;;;;;;;7.20;3.00;;;28.20;85.90;;;;;;5005026;28;20026;-77
2023/07/26 11:59:07;;;;;;;6.65;3.85;;;28.20;85.50;;;;;;5006477;28;20042;-77
2023/07/26 12:01:33;;;;;;;3.95;2.40;;;28.20;84.00;;;;;;5006614;28;20485;-77
2023/07/26 12:04:00;;;;;;;10.38;3.15;;;28.20;85.80;;;;;;5003553;28;20091;-79
2023/07/26 12:06:33;;;;;;;4.13;2.72;;;28.10;77.10;;;;;;5019725;28;20041;-77
2023/07/26 12:09:11;;;;;;;5.57;2.88;;;28.10;78.80;;;;;;5002405;28;20482;-78
2023/07/26 12:11:50;;;;;;;4.45;2.90;;;28.10;79.90;;;;;;5002749;28;20041;-77
2023/07/26 12:14:16;;;;;;;4.20;2.85;;;27.60;75.10;;;;;;4987981;28;20496;-77
2023/07/26 12:16:47;;;;;;;5.03;2.72;;;27.80;73.70;;;;;;4987035;28;20061;-77
2023/07/26 12:19:12;;;;;;;3.50;2.33;;;27.90;77.10;;;;;;4992193;28;20030;-77
2023/07/26 12:21:38;;;;;;;3.45;2.97;;;27.80;73.50;;;;;;5004933;28;20500;-77
2023/07/26 12:24:04;;;;;;;5.15;3.55;;;27.50;73.90;;;;;;5019820;28;20088;-77
2023/07/26 12:26:33;;;;;;;4.32;2.65;;;27.60;76.80;;;;;;4322084;28;10000608;-77
2023/07/26 12:29:00;;;;;;;2.45;2.25;;;27.40;76.30;;;;;;5014025;28;20054;-77
2023/07/26 12:31:27;;;;;;;3.47;2.50;;;27.10;74.80;;;;;;5017885;28;20112;-77
2023/07/26 12:34:00;;;;;;;4.60;2.67;;;26.90;77.50;;;;;;5002231;28;20045;-77
2023/07/26 12:36:28;;;;;;;4.72;2.53;;;26.50;76.60;;;;;;4988625;28;20393;-77
2023/07/26 12:38:53;;;;;;;7.35;5.10;;;26.40;76.30;;;;;;4974888;28;20041;-78
2023/07/26 12:41:19;;;;;;;5.65;3.38;;;25.80;81.60;;;;;;4966553;28;20383;-77
2023/07/26 12:43:53;;;;;;;5.05;2.78;;;25.40;86.00;;;;;;4962762;28;20053;-77